Flight Track Log - Related Links

Times and Time Zones

All times are in EDT time to prevent confusion due to time zone crossing. See the EJA929 flight status page for this flight to view local times or setup timezone preferences in your user account.

Time Position Orientation Groundspeed Altitude Reporting Facility
EDT Latitude Longitude Course Direction KTS MPH feet Rate Location/Type
Sat 12:20:38 PM 34.1839 -118.4875 112° Southeast 174 200 45,000  Level Los Angeles Center
Sat 12:21:40 PM 34.1658 -118.4322 112° Southeast 231 266 4,700 -18,484 Descending Los Angeles Center
Sat 12:22:42 PM 34.2297 -118.4103 16° North 244 281 6,800 2,371 Climbing Los Angeles Center
Sat 12:23:44 PM 34.3067 -118.3842 16° North 281 323 9,600 2,274 Climbing Los Angeles Center
Sat 12:24:46 PM 34.3897 -118.3581 15° North 306 352 11,500 1,645 Climbing Los Angeles Center
Sat 12:25:48 PM 34.4797 -118.3092 24° Northeast 358 412 13,000 1,452 Climbing Los Angeles Center
Sat 12:26:50 PM 34.5433 -118.2072 53° Northeast 379 436 14,500 1,403 Climbing Los Angeles Center
Sat 12:27:52 PM 34.6008 -118.1094 54° Northeast 392 451 15,900 2,081 Climbing Los Angeles Center
Sat 12:28:54 PM 34.6172 -117.9525 83° East 392 451 18,800 2,565 Climbing Los Angeles Center
Sat 12:29:56 PM 34.6347 -117.8294 80° East 375 432 21,200 2,226 Climbing Los Angeles Center
Sat 12:30:58 PM 34.6056 -117.7142 107° East 366 421 23,400 1,935 Climbing Los Angeles Center
Sat 12:32:00 PM 34.5575 -117.5711 112° Southeast 384 442 25,200 1,790 Climbing Los Angeles Center
Sat 12:33:02 PM 34.5136 -117.4375 112° Southeast 423 487 27,100 1,355 Climbing Los Angeles Center
Sat 12:34:04 PM 34.4664 -117.2961 112° Southeast 448 516 28,000 774 Climbing Los Angeles Center
Sat 12:35:06 PM 34.4136 -117.1442 113° Southeast 490 564 28,700 1,355 Climbing Los Angeles Center
Sat 12:36:08 PM 34.3350 -117.0117 126° Southeast 484 557 30,800 2,419 Climbing Los Angeles Center
Sat 12:37:10 PM 34.2661 -116.8364 115° Southeast 485 558 33,700 2,371 Climbing Los Angeles Center
Sat 12:38:12 PM 34.2194 -116.6844 110° East 484 557 35,700 1,887 Climbing Los Angeles Center
Sat 12:39:14 PM 34.1706 -116.5331 111° Southeast 484 557 37,600 1,597 Climbing Los Angeles Center
Sat 12:40:16 PM 34.1256 -116.3825 110° East 497 572 39,000 1,548 Climbing Los Angeles Center
Sat 12:41:18 PM 34.0656 -116.2008 112° Southeast 487 560 40,800 1,597 Climbing Los Angeles Center
Sat 12:42:20 PM 34.0178 -116.0481 111° Southeast 487 560 42,300 1,355 Climbing Los Angeles Center
Sat 12:43:22 PM 33.9686 -115.8972 111° Southeast 484 557 43,600 1,113 Climbing Los Angeles Center
Sat 12:44:24 PM 33.9189 -115.7433 111° Southeast 487 560 44,600 677 Climbing Los Angeles Center
Sat 12:45:26 PM 33.8697 -115.5942 112° Southeast 481 554 45,000 194 Climbing Los Angeles Center
Sat 12:46:28 PM 33.8189 -115.4372 111° Southeast 497 572 45,000  Level Los Angeles Center
Sat 12:47:30 PM 33.7650 -115.2772 112° Southeast 513 590 45,000  Level Los Angeles Center
Sat 12:48:32 PM 33.7003 -115.0781 111° Southeast 530 610 45,000  Level Los Angeles Center
Sat 12:49:34 PM 33.6450 -114.9133 112° Southeast 535 616 45,000  Level Los Angeles Center
Sat 12:50:36 PM 33.5947 -114.7458 110° East 535 616 45,000  Level Los Angeles Center
Sat 12:51:38 PM 33.5756 -114.5653 97° East 549 632 45,000  Level Los Angeles Center
Sat 12:52:39 PM 33.5628 -114.4225 96° East 542 624 45,000  Level Los Angeles Center
Sat 12:53:09 PM 33.5547 -114.2886 94° East 543 625 45,000  Level Albuquerque Center
Sat 12:54:11 PM 33.5303 -114.1106 99° East 542 624 45,000  Level Albuquerque Center
Sat 12:55:13 PM 33.4961 -113.9369 103° East 538 619 45,000  Level Albuquerque Center
Sat 12:56:15 PM 33.4636 -113.7625 103° East 537 618 45,000  Level Albuquerque Center
Sat 12:57:17 PM 33.4300 -113.5889 103° East 536 617 45,000  Level Albuquerque Center
Sat 12:58:19 PM 33.3911 -113.3783 102° East 539 620 45,000  Level Albuquerque Center
Sat 12:59:21 PM 33.3569 -113.2042 103° East 538 619 45,000  Level Albuquerque Center
Sat 01:00:23 PM 33.3228 -113.0292 103° East 539 620 45,000  Level Albuquerque Center
Sat 01:01:25 PM 33.2892 -112.8539 103° East 539 620 45,000 -48 Level Albuquerque Center
Sat 01:02:27 PM 33.2547 -112.6797 103° East 538 619 44,900  Descending Albuquerque Center
Sat 01:03:29 PM 33.2200 -112.4975 103° East 530 610 45,000 48 Climbing Albuquerque Center
Sat 01:04:31 PM 33.1847 -112.3264 104° East 532 612 45,000  Level Albuquerque Center
Sat 01:05:33 PM 33.1519 -112.1558 103° East 533 613 45,000  Level Albuquerque Center
Sat 01:06:35 PM 33.1100 -111.9514 104° East 533 613 45,000  Level Albuquerque Center
Sat 01:07:37 PM 33.0758 -111.7808 103° East 533 613 45,000  Level Albuquerque Center
Sat 01:08:39 PM 33.0408 -111.6114 104° East 530 610 45,000  Level Albuquerque Center
Sat 01:09:41 PM 33.0058 -111.4433 104° East 528 608 45,000  Level Albuquerque Center
Sat 01:10:43 PM 32.9717 -111.2731 103° East 532 612 45,000  Level Albuquerque Center
Sat 01:11:45 PM 32.9286 -111.0703 104° East 531 611 45,000  Level Albuquerque Center
Sat 01:12:47 PM 32.8936 -110.9017 104° East 529 609 45,000  Level Albuquerque Center
Sat 01:13:49 PM 32.8561 -110.7331 105° East 530 610 45,000  Level Albuquerque Center
Sat 01:14:51 PM 32.8192 -110.5547 104° East 530 610 45,000  Level Albuquerque Center
Sat 01:15:53 PM 32.7825 -110.3872 105° East 529 609 45,000  Level Albuquerque Center
Sat 01:16:55 PM 32.7461 -110.2192 104° East 531 611 45,000  Level Albuquerque Center
Sat 01:17:57 PM 32.7089 -110.0508 105° East 533 613 45,000  Level Albuquerque Center
Sat 01:18:59 PM 32.6636 -109.8481 105° East 535 616 45,000  Level Albuquerque Center
Sat 01:20:01 PM 32.6256 -109.6794 105° East 536 617 45,000  Level Albuquerque Center
Sat 01:21:03 PM 32.5864 -109.5103 105° East 539 620 45,000  Level Albuquerque Center
Sat 01:22:05 PM 32.5492 -109.3444 105° East 534 615 45,000  Level Albuquerque Center
Sat 01:23:07 PM 32.5044 -109.1450 105° East 532 612 45,000  Level Albuquerque Center
Sat 01:24:09 PM 32.4656 -108.9800 106° East 531 611 45,000  Level Albuquerque Center
Sat 01:25:11 PM 32.4281 -108.8147 105° East 529 609 45,000  Level Albuquerque Center
Sat 01:26:13 PM 32.3900 -108.6489 105° East 529 609 45,000  Level Albuquerque Center
Sat 01:27:15 PM 32.3439 -108.4519 105° East 527 606 45,000  Level Albuquerque Center
Sat 01:28:17 PM 32.3103 -108.3072 105° East 526 605 45,000  Level Albuquerque Center
Sat 01:29:19 PM 32.2639 -108.1067 105° East 528 608 45,000  Level Albuquerque Center
Sat 01:30:21 PM 32.2239 -107.9408 106° East 528 608 45,000  Level Albuquerque Center
Sat 01:31:23 PM 32.1836 -107.7764 106° East 526 605 45,000  Level Albuquerque Center
Sat 01:32:25 PM 32.1453 -107.6128 105° East 523 602 45,000  Level Albuquerque Center
Sat 01:33:27 PM 32.1053 -107.4489 106° East 524 603 45,000  Level Albuquerque Center
Sat 01:34:29 PM 32.0581 -107.2536 106° East 524 603 45,000  Level Albuquerque Center
Sat 01:35:31 PM 32.0189 -107.0917 106° East 522 601 45,000  Level Albuquerque Center
Sat 01:36:33 PM 31.9783 -106.9275 106° East 525 604 45,000  Level Albuquerque Center
Sat 01:37:35 PM 31.9383 -106.7661 106° East 521 600 45,000  Level Albuquerque Center
Sat 01:38:37 PM 31.8967 -106.6033 107° East 521 600 45,000  Level Albuquerque Center
Sat 01:39:39 PM 31.8531 -106.4203 106° East 533 613 45,000  Level Albuquerque Center
Sat 01:40:41 PM 31.8131 -106.2544 106° East 530 610 45,000  Level Albuquerque Center
Sat 01:41:43 PM 31.7928 -106.0850 98° East 520 598 45,000  Level Albuquerque Center
Sat 01:42:45 PM 31.7681 -105.8817 98° East 522 601 45,000  Level Albuquerque Center
Sat 01:43:47 PM 31.7472 -105.7125 98° East 523 602 45,000  Level Albuquerque Center
Sat 01:44:49 PM 31.7264 -105.5431 98° East 524 603 45,000  Level Albuquerque Center
Sat 01:45:51 PM 31.7053 -105.3747 98° East 521 600 45,000  Level Albuquerque Center
Sat 01:46:53 PM 31.6844 -105.2069 98° East 519 597 45,000  Level Albuquerque Center
Sat 01:47:55 PM 31.6644 -105.0394 98° East 517 595 45,000  Level Albuquerque Center
Sat 01:48:57 PM 31.6425 -104.8706 99° East 520 598 45,000  Level Albuquerque Center
Sat 01:49:59 PM 31.6172 -104.6686 98° East 520 598 45,000  Level Albuquerque Center
Sat 01:51:00 PM 31.5964 -104.5006 98° East 519 597 45,000  Level Albuquerque Center
Sat 01:52:02 PM 31.5747 -104.3339 99° East 518 596 45,000  Level Albuquerque Center
Sat 01:53:04 PM 31.5514 -104.1681 99° East 516 594 45,000  Level Albuquerque Center
Sat 01:54:06 PM 31.5289 -104.0017 99° East 516 594 45,000  Level Albuquerque Center
Sat 01:55:08 PM 31.5075 -103.8367 99° East 514 592 45,000  Level Albuquerque Center
Sat 01:56:09 PM 31.4833 -103.6672 99° East 514 592 45,000  Level Albuquerque Center
Sat 01:57:11 PM 31.4606 -103.5025 99° East 514 592 45,000  Level Albuquerque Center
Sat 01:58:13 PM 31.4358 -103.3053 98° East 513 590 45,000  Level Albuquerque Center
Sat 01:59:15 PM 31.4147 -103.1411 99° East 512 589 45,000  Level Albuquerque Center
Sat 02:00:16 PM 31.3933 -102.9761 99° East 513 590 45,000  Level Albuquerque Center
Sat 02:01:18 PM 31.3722 -102.8108 98° East 513 590 45,000  Level Albuquerque Center
Sat 02:02:20 PM 31.3517 -102.6475 98° East 512 589 45,000  Level Albuquerque Center
Sat 02:03:22 PM 31.3306 -102.4850 99° East 530 610 45,000  Level Albuquerque Center
Sat 02:04:23 PM 31.3042 -102.2844 99° East 527 606 45,000  Level Albuquerque Center
Sat 02:05:25 PM 31.2828 -102.1200 99° East 518 596 45,000  Level Albuquerque Center
Sat 02:05:59 PM 31.2728 -102.0256 97° East 522 601 45,000  Level Houston Center
Sat 02:07:01 PM 31.2500 -101.8619 99° East 511 588 45,000  Level Houston Center
Sat 02:08:03 PM 31.2272 -101.6975 99° East 513 590 45,000  Level Houston Center
Sat 02:09:04 PM 31.2044 -101.5325 99° East 515 593 45,000  Level Houston Center
Sat 02:10:06 PM 31.1811 -101.3661 99° East 518 596 45,000  Level Houston Center
Sat 02:11:08 PM 31.1553 -101.1839 99° East 519 597 45,000  Level Houston Center
Sat 02:12:10 PM 31.1328 -101.0169 99° East 520 598 45,000 -48 Level Houston Center
Sat 02:13:12 PM 31.1103 -100.8506 99° East 519 597 44,900 -1,016 Descending Houston Center
Sat 02:14:14 PM 31.0842 -100.6836 100° East 522 601 42,900 -2,439 Descending Houston Center
Sat 02:15:15 PM 31.0556 -100.4808 99° East 527 606 39,900 -2,732 Descending Houston Center
Sat 02:16:17 PM 31.0303 -100.3089 100° East 536 617 37,300 -2,565 Descending Houston Center
Sat 02:17:19 PM 31.0044 -100.1331 100° East 547 629 34,600 -2,565 Descending Houston Center
Sat 02:18:21 PM 30.9789 -99.9561 100° East 552 635 32,000 -2,565 Descending Houston Center
Sat 02:19:23 PM 30.9517 -99.7803 100° East 552 635 29,300 -2,661 Descending Houston Center
Sat 02:20:25 PM 30.9258 -99.6069 100° East 544 626 26,500 -2,613 Descending Houston Center
Sat 02:21:27 PM 30.9000 -99.4436 100° East 517 595 23,900 -2,613 Descending Houston Center
Sat 02:22:29 PM 30.8708 -99.2589 100° East 484 557 21,100 -1,403 Descending Houston Center
Sat 02:23:31 PM 30.8478 -99.1175 101° East 466 536 21,000 -48 Descending Houston Center
Sat 02:24:33 PM 30.8258 -98.9700 100° East 459 528 21,000  Level Houston Center
Sat 02:25:35 PM 30.8031 -98.8250 100° East 455 524 21,000 -439 Level Houston Center
Sat 02:26:36 PM 30.7844 -98.6844 99° East 440 506 20,100 -1,610 Descending Houston Center
Sat 02:27:38 PM 30.7717 -98.5444 96° East 433 498 17,700 -2,516 Descending Houston Center
Sat 02:28:40 PM 30.7536 -98.3783 97° East 439 505 14,900 -2,419 Descending Houston Center
Sat 02:29:42 PM 30.7392 -98.2456 97° East 415 478 12,700 -2,129 Descending Houston Center
Sat 02:30:44 PM 30.7253 -98.1181 97° East 400 460 10,500 -1,306 Descending Houston Center
Sat 02:31:46 PM 30.6794 -98.0078 116° Southeast 384 442 10,000 -242 Descending Houston Center
Sat 02:32:48 PM 30.6211 -97.9253 129° Southeast 340 391 10,000 -1,016 Level Houston Center
Sat 02:33:50 PM 30.5681 -97.8597 133° Southeast 287 330 7,900 -1,935 Descending Houston Center
Sat 02:34:52 PM 30.5142 -97.7953 134° Southeast 277 319 6,000 -1,887 Descending Houston Center
Sat 02:35:54 PM 30.4372 -97.7464 151° Southeast 268 308 4,000 -1,403 Descending Houston Center
Sat 02:36:56 PM 30.3767 -97.7058 150° Southeast 260 299 3,100 -677 Descending Houston Center
Sat 02:37:58 PM 30.3242 -97.6717 151° Southeast 239 275 2,600 -484 Descending Houston Center
Sat 02:39:00 PM 30.2836 -97.6575 163° South 186 214 2,100 -629 Descending Houston Center
Sat 02:40:02 PM 30.2431 -97.6569 179° South 158 182 1,300 -488 Descending Houston Center
Sat 02:41:03 PM 30.2000 -97.6542 177° South 152 175 1,100 -197 Descending Houston Center
Sat 02:43:00 PM 30.1833 -97.6667 221° Southwest  Level FlightAware Approximate

Login

Don't have an account? Register now (free) for customized features, flight alerts, and more!